Nearby METAR Reports

 

GCLP - Las Palmas/Gando, Spain
Distance from station: NE 26km
Updated: 16/12/2019 02:00
Few Clouds
Few Clouds
 Wind from W
Wind: W 11 km/h
Temperature: 16°C
Dew Point: 11°C
Humidity: 72%
Barometer: 1012 hPa
Clouds: Few Clouds
Visibility: 10 km
Cloud details: Few Clouds 914 m
2019/12/16 02:00 GCLP 160200Z 27006KT 9999 FEW030 16/11 Q1012 NOSIG
GCTS - Tenerife Sur/Rei, Spain
Distance from station: WNW 102km
Updated: 16/12/2019 02:00
Few Clouds
Few Clouds
 Wind from NNW
Wind: NNW 13 km/h
Temperature: 17°C
Dew Point: 10°C
Humidity: 64%
Barometer: 1013 hPa
Clouds: Few Clouds
Visibility: 10 km
Cloud details: Few Clouds 762 m
2019/12/16 02:00 GCTS 160200Z 34007KT 300V030 9999 FEW025 17/10 Q1013 NOSIG
 
GCXO - Tenerife/Los Rod, Spain
Distance from station: NW 110km
Updated: 16/12/2019 02:00
Mostly cloudy
Mostly cloudy
 Wind from W
Wind: W 24 km/h
Temperature: 13°C
Dew Point: 12°C
Humidity: 94%
Barometer: 1014 hPa
Clouds: Mostly cloudy
Visibility: 10 km
Cloud details: Partly cloudy 274 m
Mostly cloudy 396 m
2019/12/16 02:00 GCXO 160200Z AUTO 28013KT 9999 SCT009 BKN013 13/12 Q1014
GCGM - La Gomera Arpt, Spain
Distance from station: W 164km
Updated: 16/12/2019 02:00
Light rain, Few clouds
Light rain, Few clouds
 Wind from W
Wind: W 15 km/h
Temperature: 17°C
Dew Point: 12°C
Humidity: 73%
Barometer: 1014 hPa
Summary: Light rain
Clouds: Few Clouds
Visibility: 10 km
Cloud details: Few Clouds 853 m
2019/12/16 02:00 GCGM 160200Z AUTO 28008KT 250V320 9999 -RA FEW028 17/12 Q1014 RMK R09/27009KT 230V310 ARP/29009KT 250V320
 
GCFV - Fuerteventura Ar, Spain
Distance from station: ENE 183km
Updated: 16/12/2019 02:00
Clear
Clear
 Wind from WNW
Wind: WNW 6 km/h
Temperature: 14°C
Dew Point: 11°C
Humidity: 82%
Barometer: 1012 hPa
Summary: Clear
Visibility: greater than 10 km
2019/12/16 02:00 GCFV 160200Z AUTO 30003KT CAVOK 14/11 Q1012
GCHI - Hierro Airport, Spain
Distance from station: W 226km
Updated: 16/12/2019 02:00
Few Clouds
Few Clouds
 Wind from WNW
Wind: WNW 19 km/h, Gust: 37 km/h
Temperature: 19°C
Dew Point: 13°C
Humidity: 68%
Barometer: 1014 hPa
Clouds: Few Clouds
Visibility: 10 km
Cloud details: Few Clouds 853 m
2019/12/16 02:00 GCHI 160200Z AUTO 30010G20KT 250V330 9999 FEW028 19/13 Q1014
 
GCLA - La Palma Airport, Spain
Distance from station: WNW 233km
Updated: 16/12/2019 02:00
Mostly cloudy
Mostly cloudy
 Wind from varies
Wind: varies 7 km/h
Temperature: 18°C
Dew Point: 13°C
Humidity: 73%
Barometer: 1012 hPa
Clouds: Mostly cloudy
Visibility: 10 km
Cloud details: Mostly cloudy 1433 m
2019/12/16 02:00 GCLA 160200Z AUTO VRB04KT 9999 BKN047 18/13 Q1012
GCRR - Arrecife/Lanzaro, Spain
Distance from station: NE 234km
Updated: 16/12/2019 02:00
Clear
Clear
 Wind from W
Wind: W 11 km/h
Temperature: 15°C
Dew Point: 13°C
Humidity: 88%
Barometer: 1011 hPa
Summary: Clear
Visibility: greater than 10 km
2019/12/16 02:00 GCRR 160200Z AUTO 28006KT CAVOK 15/13 Q1011
 
LPMA - Funchal/Madeira, Portugal
Distance from station: NNW 556km
Updated: 16/12/2019 02:00
Partly cloudy
Partly cloudy
 Wind from NNW
Wind: NNW 15 km/h
Temperature: 16°C
Dew Point: 9°C
Humidity: 63%
Barometer: 1007 hPa
Clouds: Partly cloudy
Visibility: 10 km
Cloud details: Partly cloudy 457 m
Few Clouds 488 m
Partly cloudy 914 m
2019/12/16 02:00 LPMA 160200Z 33008KT 270V030 9999 SCT015 FEW016TCU SCT030 16/09 Q1007
LPPS - Porto Santo Isla, Portugal
Distance from station: N 594km
Updated: 16/12/2019 02:00
Few Clouds
Few Clouds
 Wind from NW
Wind: NW 19 km/h
Temperature: 15°C
Dew Point: 12°C
Humidity: 82%
Barometer: 1006 hPa
Clouds: Few Clouds
Visibility: 10 km
Cloud details: Partly cloudy 427 m
Few Clouds 488 m
2019/12/16 02:00 LPPS 160200Z 31010KT 9999 SCT014 FEW016TCU 15/12 Q1006